createdAt,value
2018-08-31T00:00:59.816Z,81.50
2018-08-31T00:05:54.511Z,83.00
2018-08-31T00:10:42.771Z,83.90
2018-08-31T00:13:10.625Z,81.20
2018-08-31T00:15:38.415Z,84.00
2018-08-31T00:18:06.362Z,83.80
2018-08-31T00:20:34.158Z,85.50
2018-08-31T00:23:01.926Z,85.80
2018-08-31T00:26:14.023Z,85.20
2018-08-31T00:29:47.115Z,86.10
2018-08-31T00:34:34.521Z,85.20
2018-08-31T00:41:30.354Z,86.60
2018-08-31T00:44:22.823Z,87.30
2018-08-31T00:46:50.705Z,87.90
2018-08-31T00:49:18.504Z,88.20
2018-08-31T00:51:46.384Z,88.30
2018-08-31T00:54:14.193Z,89.20
2018-08-31T00:56:41.993Z,89.20
2018-08-31T00:59:09.870Z,90.00
2018-08-31T01:01:37.683Z,89.60
2018-08-31T01:04:05.623Z,89.40
2018-08-31T01:06:33.367Z,90.10
2018-08-31T01:09:01.163Z,87.50
2018-08-31T01:11:28.960Z,88.40
2018-08-31T01:13:56.795Z,88.30
2018-08-31T01:16:24.715Z,89.50
2018-08-31T01:18:52.584Z,86.50
2018-08-31T01:21:20.418Z,89.30
2018-08-31T01:23:48.167Z,89.40
2018-08-31T01:26:16.028Z,90.30
2018-08-31T01:28:43.817Z,89.70
2018-08-31T01:31:11.631Z,90.00
2018-08-31T01:33:39.415Z,88.80
2018-08-31T01:36:07.190Z,87.60
2018-08-31T01:38:35.031Z,90.30
2018-08-31T01:41:02.861Z,90.40
2018-08-31T01:43:30.659Z,90.10
2018-08-31T01:45:58.385Z,90.30
2018-08-31T01:48:26.195Z,90.10
2018-08-31T01:50:59.784Z,89.60
2018-08-31T01:53:28.565Z,90.40
2018-08-31T01:55:56.431Z,90.70
2018-08-31T01:58:24.213Z,90.60
2018-08-31T02:00:52.003Z,91.10
2018-08-31T02:03:19.766Z,91.30
2018-08-31T02:05:47.553Z,91.00
2018-08-31T02:08:15.357Z,91.00
2018-08-31T02:10:43.187Z,91.30
2018-08-31T02:13:10.995Z,91.20
2018-08-31T02:15:38.780Z,90.80
2018-08-31T02:18:06.639Z,92.10
2018-08-31T02:20:34.463Z,91.30
2018-08-31T02:23:02.326Z,92.00
2018-08-31T02:25:30.116Z,91.60
2018-08-31T02:27:57.928Z,92.30
2018-08-31T02:30:25.780Z,91.90
2018-08-31T02:32:53.656Z,90.10
2018-08-31T02:35:21.424Z,92.20
2018-08-31T02:37:49.215Z,92.10
2018-08-31T02:40:16.983Z,92.10
2018-08-31T02:42:44.783Z,92.20
2018-08-31T02:45:12.608Z,90.90
2018-08-31T02:47:40.396Z,93.10
2018-08-31T02:50:08.263Z,93.30
2018-08-31T02:52:36.073Z,92.70
2018-08-31T02:55:03.950Z,93.20
2018-08-31T02:57:31.785Z,93.70
2018-08-31T02:59:59.648Z,93.80
2018-08-31T03:02:27.440Z,93.70
2018-08-31T03:04:55.296Z,94.00
2018-08-31T03:07:23.144Z,94.20
2018-08-31T03:09:50.963Z,94.30
2018-08-31T03:12:18.964Z,94.20
2018-08-31T03:14:46.716Z,94.20
2018-08-31T03:17:14.608Z,94.40
2018-08-31T03:19:42.483Z,93.90
2018-08-31T03:22:10.294Z,94.40
2018-08-31T03:24:38.067Z,94.60
2018-08-31T03:27:05.874Z,94.50
2018-08-31T03:29:33.670Z,95.00
2018-08-31T03:32:01.463Z,95.00
2018-08-31T03:34:29.200Z,95.40
2018-08-31T03:36:56.974Z,95.40
2018-08-31T03:39:24.763Z,95.20
2018-08-31T03:41:52.637Z,94.30
2018-08-31T03:44:20.412Z,95.80
2018-08-31T03:46:48.182Z,95.40
2018-08-31T03:49:15.927Z,95.10
2018-08-31T03:51:43.829Z,95.40
2018-08-31T03:54:11.610Z,95.40
2018-08-31T03:56:39.585Z,95.90
2018-08-31T03:59:07.740Z,95.30
2018-08-31T04:01:35.551Z,95.60
2018-08-31T04:04:03.436Z,95.80
2018-08-31T04:06:31.257Z,95.60
2018-08-31T04:08:59.127Z,95.40
2018-08-31T04:11:26.948Z,95.80
2018-08-31T04:13:54.755Z,95.80
2018-08-31T04:16:22.521Z,94.90
2018-08-31T04:18:50.332Z,95.80
2018-08-31T04:21:18.095Z,95.50
2018-08-31T04:23:45.959Z,96.00
2018-08-31T04:26:13.791Z,95.60
2018-08-31T04:28:41.579Z,96.20
2018-08-31T04:31:09.334Z,95.40
2018-08-31T04:33:37.155Z,96.30
2018-08-31T04:36:04.907Z,96.20
2018-08-31T04:38:32.638Z,96.50
2018-08-31T04:41:00.488Z,95.90
2018-08-31T04:43:28.196Z,96.20
2018-08-31T04:45:55.995Z,96.60
2018-08-31T04:48:26.067Z,95.80
2018-08-31T04:50:58.924Z,96.00
2018-08-31T04:53:27.055Z,96.70
2018-08-31T04:55:54.887Z,97.10
2018-08-31T04:58:22.717Z,96.90
2018-08-31T05:00:50.506Z,95.40
2018-08-31T05:03:18.363Z,97.00
2018-08-31T05:05:46.211Z,95.90
2018-08-31T05:08:14.098Z,95.40
2018-08-31T05:10:41.978Z,97.00
2018-08-31T05:13:09.919Z,96.20
2018-08-31T05:15:37.820Z,96.70
2018-08-31T05:18:05.712Z,96.20
2018-08-31T05:20:33.523Z,96.60
2018-08-31T05:23:02.380Z,96.20
2018-08-31T05:25:30.135Z,96.70
2018-08-31T05:27:57.955Z,96.80
2018-08-31T05:30:25.852Z,96.80
2018-08-31T05:32:53.617Z,96.80
2018-08-31T05:35:21.424Z,96.90
2018-08-31T05:37:49.375Z,96.80
2018-08-31T05:40:17.235Z,95.90
2018-08-31T05:42:45.099Z,95.70
2018-08-31T05:45:13.317Z,95.50
2018-08-31T05:47:41.155Z,95.40
2018-08-31T05:50:08.992Z,96.20
2018-08-31T05:52:36.758Z,96.10
2018-08-31T05:55:04.735Z,95.60
2018-08-31T05:57:32.841Z,96.10
2018-08-31T06:00:00.796Z,95.90
2018-08-31T06:02:28.720Z,95.20
2018-08-31T06:04:56.703Z,94.80
2018-08-31T06:07:24.551Z,95.00
2018-08-31T06:09:52.322Z,95.10
2018-08-31T06:12:20.291Z,94.40
2018-08-31T06:14:48.183Z,94.60
2018-08-31T06:17:16.026Z,94.80
2018-08-31T06:19:43.832Z,94.40
2018-08-31T06:22:11.751Z,93.70
2018-08-31T06:24:39.620Z,93.80
2018-08-31T06:27:07.398Z,93.40
2018-08-31T06:29:35.243Z,93.70
2018-08-31T06:32:03.113Z,93.40
2018-08-31T06:34:30.934Z,93.70
2018-08-31T06:36:58.711Z,93.00
2018-08-31T06:39:26.494Z,92.80
2018-08-31T06:41:54.266Z,92.90
2018-08-31T06:44:22.091Z,92.50
2018-08-31T06:46:50.008Z,92.80
2018-08-31T06:49:17.994Z,92.10
2018-08-31T06:51:45.800Z,92.20
2018-08-31T06:54:13.588Z,91.70
2018-08-31T06:56:41.355Z,91.80
2018-08-31T06:59:09.215Z,91.50
2018-08-31T07:01:37.024Z,91.40
2018-08-31T07:04:04.792Z,91.20
2018-08-31T07:06:32.602Z,91.00
2018-08-31T07:09:00.399Z,90.60
2018-08-31T07:11:28.154Z,90.70
2018-08-31T07:13:56.003Z,90.60
2018-08-31T07:16:23.783Z,90.80
2018-08-31T07:18:51.659Z,90.40
2018-08-31T07:21:19.515Z,90.20
2018-08-31T07:23:47.364Z,90.00
2018-08-31T07:26:15.193Z,89.30
2018-08-31T07:28:42.939Z,89.60
2018-08-31T07:31:10.696Z,89.30
2018-08-31T07:33:38.472Z,89.50
2018-08-31T07:36:06.289Z,88.50
2018-08-31T07:38:34.044Z,87.70
2018-08-31T07:41:01.855Z,86.70
2018-08-31T07:43:29.660Z,86.20
2018-08-31T07:45:57.450Z,85.30
2018-08-31T07:48:25.168Z,85.40
2018-08-31T07:50:52.958Z,84.30
2018-08-31T07:53:20.753Z,84.30
2018-08-31T07:55:48.535Z,86.00
2018-08-31T07:58:16.386Z,85.40
2018-08-31T08:00:44.215Z,85.10
2018-08-31T08:03:11.963Z,85.10
2018-08-31T08:05:39.828Z,84.60
2018-08-31T08:08:07.551Z,84.60
2018-08-31T08:10:35.319Z,84.10
2018-08-31T08:13:03.108Z,83.40
2018-08-31T08:15:30.952Z,83.20
2018-08-31T08:17:58.780Z,82.60
2018-08-31T08:20:26.494Z,82.40
2018-08-31T08:22:54.343Z,81.90
2018-08-31T08:25:22.123Z,82.50
2018-08-31T08:27:49.936Z,83.60
2018-08-31T08:30:17.736Z,83.30
2018-08-31T08:32:45.515Z,81.10
2018-08-31T08:35:13.371Z,81.90
2018-08-31T08:37:41.470Z,81.40
2018-08-31T08:40:09.425Z,81.10
2018-08-31T08:42:37.323Z,79.80
2018-08-31T08:45:05.569Z,78.70
2018-08-31T08:47:33.352Z,77.90
2018-08-31T08:50:01.200Z,77.60
2018-08-31T08:52:28.987Z,77.00
2018-08-31T08:54:57.638Z,76.80
2018-08-31T08:57:25.485Z,76.30
2018-08-31T08:59:53.249Z,74.10
2018-08-31T09:02:21.110Z,75.70
2018-08-31T09:04:48.906Z,74.30
2018-08-31T09:07:17.511Z,74.20
2018-08-31T09:09:46.383Z,73.20
2018-08-31T09:12:14.310Z,72.60
2018-08-31T09:14:42.068Z,72.30
2018-08-31T09:17:09.879Z,71.10
2018-08-31T09:19:37.967Z,71.10
2018-08-31T09:22:05.862Z,69.00
2018-08-31T09:24:33.652Z,68.30
2018-08-31T09:27:01.479Z,68.40
2018-08-31T09:29:29.252Z,66.60
2018-08-31T09:31:57.064Z,67.40
2018-08-31T09:34:24.908Z,65.50
2018-08-31T09:36:52.728Z,65.60
2018-08-31T09:39:20.560Z,67.80
2018-08-31T09:41:48.390Z,65.10
2018-08-31T09:44:16.174Z,64.30
2018-08-31T09:46:43.959Z,64.30
2018-08-31T09:49:11.816Z,65.30
2018-08-31T09:51:39.601Z,63.00
2018-08-31T09:54:07.352Z,64.80
2018-08-31T09:56:35.119Z,62.60
2018-08-31T09:59:02.970Z,62.90
2018-08-31T10:01:32.807Z,64.60
2018-08-31T10:04:01.491Z,64.30
2018-08-31T10:06:30.548Z,63.80
2018-08-31T10:08:58.418Z,63.80
2018-08-31T10:11:26.251Z,63.90
2018-08-31T10:13:54.039Z,62.60
2018-08-31T10:16:21.855Z,62.90
2018-08-31T10:18:49.693Z,62.40
2018-08-31T10:21:17.399Z,62.40
2018-08-31T10:23:45.175Z,63.50
2018-08-31T10:26:12.991Z,64.10
2018-08-31T10:28:40.779Z,63.50
2018-08-31T10:31:08.607Z,60.10
2018-08-31T10:33:36.468Z,62.90
2018-08-31T10:36:04.843Z,61.90
2018-08-31T10:38:32.633Z,61.40
2018-08-31T10:41:00.507Z,62.40
2018-08-31T10:43:28.399Z,60.60
2018-08-31T10:45:56.186Z,62.80
2018-08-31T10:48:24.272Z,62.70
2018-08-31T10:50:52.108Z,61.50
2018-08-31T10:53:19.969Z,60.30
2018-08-31T10:55:47.752Z,62.50
2018-08-31T10:58:15.563Z,62.50
2018-08-31T11:00:43.412Z,63.40
2018-08-31T11:03:11.287Z,63.80
2018-08-31T11:05:39.287Z,63.00
2018-08-31T11:08:07.140Z,62.30
2018-08-31T11:10:34.963Z,59.60
2018-08-31T11:13:02.825Z,59.60
2018-08-31T11:15:30.671Z,56.70
2018-08-31T11:17:58.495Z,55.20
2018-08-31T11:20:26.320Z,52.00
2018-08-31T11:22:54.082Z,50.90
2018-08-31T11:25:22.638Z,51.20
2018-08-31T11:27:50.543Z,50.30
2018-08-31T11:30:18.339Z,48.30
2018-08-31T11:32:46.184Z,46.80
2018-08-31T11:35:14.671Z,47.00
2018-08-31T11:37:42.694Z,48.40
2018-08-31T11:40:10.663Z,50.00
2018-08-31T11:42:38.439Z,50.70
2018-08-31T11:45:06.596Z,51.80
2018-08-31T11:47:34.366Z,50.30
2018-08-31T11:50:02.239Z,51.50
2018-08-31T11:52:30.110Z,50.50
2018-08-31T11:54:57.947Z,47.90
2018-08-31T11:57:30.105Z,49.60
2018-08-31T11:59:57.962Z,49.50
2018-08-31T12:02:25.729Z,51.30
2018-08-31T12:04:54.602Z,51.20
2018-08-31T12:07:23.382Z,51.50
2018-08-31T12:09:51.310Z,50.60
2018-08-31T12:12:19.136Z,47.40
2018-08-31T12:14:46.995Z,46.90
2018-08-31T12:17:14.787Z,46.90
2018-08-31T12:19:42.777Z,45.30
2018-08-31T12:22:10.662Z,45.30
2018-08-31T12:24:47.279Z,42.60
2018-08-31T12:27:24.849Z,43.40
2018-08-31T12:29:56.419Z,44.30
2018-08-31T12:32:26.351Z,42.40
2018-08-31T12:34:54.243Z,43.10
2018-08-31T12:37:22.036Z,42.90
2018-08-31T12:39:56.342Z,40.90
2018-08-31T12:42:29.818Z,40.40
2018-08-31T12:44:58.087Z,43.10
2018-08-31T12:47:25.887Z,42.70
2018-08-31T12:49:54.331Z,41.70
2018-08-31T12:52:24.963Z,45.10
2018-08-31T12:54:52.807Z,45.30
2018-08-31T12:57:20.641Z,43.90
2018-08-31T12:59:54.108Z,42.10
2018-08-31T13:02:21.959Z,40.70
2018-08-31T13:04:49.818Z,41.20
2018-08-31T13:07:17.536Z,40.20
2018-08-31T13:09:45.423Z,40.70
2018-08-31T13:12:13.303Z,40.00
2018-08-31T13:14:43.926Z,39.20
2018-08-31T13:17:11.825Z,40.60
2018-08-31T13:19:39.622Z,42.20
2018-08-31T13:22:07.515Z,42.80
2018-08-31T13:24:35.407Z,42.80
2018-08-31T13:27:03.535Z,43.50
2018-08-31T13:29:32.116Z,43.90
2018-08-31T13:31:59.867Z,44.60
2018-08-31T13:34:28.245Z,42.70
2018-08-31T13:36:56.015Z,42.20
2018-08-31T13:39:26.029Z,42.70
2018-08-31T13:41:53.876Z,42.40
2018-08-31T13:44:21.720Z,43.50
2018-08-31T13:46:50.671Z,43.30
2018-08-31T13:49:18.423Z,42.00
2018-08-31T13:51:46.488Z,42.70
2018-08-31T13:54:14.233Z,42.80
2018-08-31T13:56:42.108Z,43.10
2018-08-31T13:59:09.879Z,41.80
2018-08-31T14:01:37.741Z,40.70
2018-08-31T14:04:05.868Z,43.40
2018-08-31T14:06:33.752Z,41.50
2018-08-31T14:09:01.601Z,41.80
2018-08-31T14:11:29.400Z,43.40
2018-08-31T14:13:57.622Z,43.60
2018-08-31T14:16:25.831Z,43.10
2018-08-31T14:18:53.650Z,44.00
2018-08-31T14:21:21.448Z,45.00
2018-08-31T14:23:49.267Z,45.50
2018-08-31T14:26:17.067Z,45.10
2018-08-31T14:28:44.986Z,44.90
2018-08-31T14:31:12.788Z,45.20
2018-08-31T14:33:40.571Z,45.00
2018-08-31T14:36:08.480Z,46.40
2018-08-31T14:38:36.211Z,44.80
2018-08-31T14:41:03.955Z,45.30
2018-08-31T14:43:37.607Z,44.80
2018-08-31T14:46:05.412Z,44.20
2018-08-31T14:48:33.183Z,46.10
2018-08-31T14:51:01.038Z,43.80
2018-08-31T14:53:34.857Z,44.10
2018-08-31T14:56:02.703Z,43.10
2018-08-31T14:58:30.523Z,43.30
2018-08-31T15:00:58.239Z,42.20
2018-08-31T15:03:29.894Z,42.10
2018-08-31T15:05:58.258Z,42.40
2018-08-31T15:08:25.911Z,42.30
2018-08-31T15:10:53.719Z,44.70
2018-08-31T15:13:21.502Z,41.00
2018-08-31T15:15:49.312Z,41.50
2018-08-31T15:18:17.130Z,40.80
2018-08-31T15:20:44.987Z,40.10
2018-08-31T15:23:12.844Z,41.30
2018-08-31T15:25:40.753Z,42.10
2018-08-31T15:28:08.423Z,40.70
2018-08-31T15:30:36.289Z,43.40
2018-08-31T15:33:04.260Z,41.70
2018-08-31T15:35:32.186Z,40.70
2018-08-31T15:37:59.963Z,41.10
2018-08-31T15:40:27.823Z,40.90
2018-08-31T15:42:55.627Z,40.50
2018-08-31T15:45:23.457Z,41.50
2018-08-31T15:47:51.275Z,40.90
2018-08-31T15:50:20.975Z,42.30
2018-08-31T15:52:48.726Z,41.20
2018-08-31T15:55:16.576Z,41.70
2018-08-31T15:57:44.367Z,43.20
2018-08-31T16:00:12.195Z,43.70
2018-08-31T16:02:40.619Z,43.00
2018-08-31T16:05:08.935Z,43.10
2018-08-31T16:07:37.539Z,43.60
2018-08-31T16:10:05.919Z,44.80
2018-08-31T16:12:33.794Z,44.60
2018-08-31T16:15:01.616Z,44.20
2018-08-31T16:17:29.477Z,44.40
2018-08-31T16:19:57.299Z,44.00
2018-08-31T16:22:25.067Z,44.10
2018-08-31T16:24:53.087Z,44.60
2018-08-31T16:27:20.967Z,44.10
2018-08-31T16:29:49.035Z,44.00
2018-08-31T16:32:16.835Z,43.70
2018-08-31T16:34:44.674Z,43.80
2018-08-31T16:37:12.424Z,45.20
2018-08-31T16:39:40.288Z,44.70
2018-08-31T16:42:20.065Z,44.40
2018-08-31T16:44:53.975Z,44.50
2018-08-31T16:47:21.726Z,44.20
2018-08-31T16:49:49.532Z,43.90
2018-08-31T16:52:17.295Z,43.40
2018-08-31T16:54:45.064Z,44.20
2018-08-31T16:57:12.783Z,44.80
2018-08-31T16:59:40.600Z,44.50
2018-08-31T17:02:08.634Z,44.60
2018-08-31T17:04:36.475Z,44.70
2018-08-31T17:07:04.363Z,45.00
2018-08-31T17:09:32.179Z,47.10
2018-08-31T17:11:59.956Z,46.40
2018-08-31T17:14:27.745Z,46.00
2018-08-31T17:16:55.574Z,46.30
2018-08-31T17:19:23.333Z,47.00
2018-08-31T17:21:51.202Z,47.10
2018-08-31T17:24:19.212Z,47.40
2018-08-31T17:26:52.706Z,47.00
2018-08-31T17:29:26.283Z,47.20
2018-08-31T17:31:59.935Z,47.20
2018-08-31T17:34:33.765Z,47.50
2018-08-31T17:37:07.203Z,47.90
2018-08-31T17:39:35.011Z,47.50
2018-08-31T17:42:03.112Z,47.90
2018-08-31T17:44:30.897Z,48.00
2018-08-31T17:46:59.052Z,48.40
2018-08-31T17:49:27.330Z,49.00
2018-08-31T17:51:55.449Z,49.40
2018-08-31T17:54:23.243Z,49.70
2018-08-31T17:56:51.381Z,50.00
2018-08-31T17:59:19.219Z,50.50
2018-08-31T18:01:47.072Z,50.50
2018-08-31T18:04:15.443Z,50.70
2018-08-31T18:06:43.535Z,50.90
2018-08-31T18:09:11.339Z,50.90
2018-08-31T18:11:39.150Z,51.40
2018-08-31T18:14:06.956Z,51.60
2018-08-31T18:16:34.811Z,51.90
2018-08-31T18:19:02.611Z,52.30
2018-08-31T18:21:30.379Z,52.40
2018-08-31T18:23:59.944Z,52.80
2018-08-31T18:26:28.147Z,52.70
2018-08-31T18:28:56.371Z,52.90
2018-08-31T18:31:24.166Z,53.00
2018-08-31T18:33:53.244Z,54.10
2018-08-31T18:36:24.652Z,53.60
2018-08-31T18:38:52.454Z,53.80
2018-08-31T18:41:20.900Z,53.80
2018-08-31T18:43:52.488Z,53.90
2018-08-31T18:46:20.696Z,54.20
2018-08-31T18:48:49.058Z,54.30
2018-08-31T18:51:16.952Z,54.40
2018-08-31T18:53:44.843Z,54.60
2018-08-31T18:56:13.278Z,54.60
2018-08-31T18:58:41.419Z,54.80
2018-08-31T19:01:09.639Z,55.10
2018-08-31T19:03:37.978Z,55.20
2018-08-31T19:06:05.916Z,55.40
2018-08-31T19:08:36.602Z,55.60
2018-08-31T19:11:04.545Z,55.70
2018-08-31T19:13:32.261Z,55.80
2018-08-31T19:16:00.104Z,55.90
2018-08-31T19:18:28.615Z,55.90
2018-08-31T19:20:56.559Z,56.30
2018-08-31T19:23:24.595Z,56.60
2018-08-31T19:25:52.535Z,56.70
2018-08-31T19:28:20.315Z,57.00
2018-08-31T19:30:48.142Z,57.00
2018-08-31T19:33:16.099Z,57.20
2018-08-31T19:35:43.940Z,57.50
2018-08-31T19:38:12.006Z,57.80
2018-08-31T19:40:39.854Z,58.00
2018-08-31T19:43:07.720Z,58.10
2018-08-31T19:45:35.537Z,58.20
2018-08-31T19:48:03.395Z,58.50
2018-08-31T19:50:31.740Z,58.80
2018-08-31T19:52:59.566Z,59.00
2018-08-31T19:55:27.425Z,59.50
2018-08-31T19:57:58.286Z,59.70
2018-08-31T20:00:26.096Z,60.00
2018-08-31T20:02:54.026Z,60.30
2018-08-31T20:05:22.666Z,60.70
2018-08-31T20:07:51.213Z,60.50
2018-08-31T20:10:19.063Z,61.00
2018-08-31T20:12:47.385Z,61.60
2018-08-31T20:15:15.446Z,61.70
2018-08-31T20:17:43.243Z,62.10
2018-08-31T20:20:11.891Z,62.40
2018-08-31T20:22:39.604Z,62.80
2018-08-31T20:25:07.517Z,62.60
2018-08-31T20:27:35.608Z,62.90
2018-08-31T20:30:03.596Z,63.40
2018-08-31T20:32:31.455Z,63.50
2018-08-31T20:34:59.229Z,63.60
2018-08-31T20:37:27.015Z,63.80
2018-08-31T20:39:55.615Z,64.00
2018-08-31T20:42:23.699Z,63.60
2018-08-31T20:44:51.476Z,64.30
2018-08-31T20:47:19.351Z,64.30
2018-08-31T20:49:47.195Z,64.20
2018-08-31T20:52:15.498Z,64.60
2018-08-31T20:54:43.270Z,64.60
2018-08-31T20:57:11.124Z,64.90
2018-08-31T20:59:38.927Z,64.50
2018-08-31T21:02:06.707Z,65.30
2018-08-31T21:04:34.491Z,65.00
2018-08-31T21:07:02.242Z,65.60
2018-08-31T21:09:30.024Z,65.50
2018-08-31T21:11:58.026Z,66.60
2018-08-31T21:14:25.985Z,66.00
2018-08-31T21:16:53.815Z,66.20
2018-08-31T21:19:21.622Z,66.40
2018-08-31T21:21:49.474Z,66.20
2018-08-31T21:24:17.291Z,65.90
2018-08-31T21:26:45.140Z,65.80
2018-08-31T21:29:12.957Z,66.30
2018-08-31T21:31:40.756Z,66.30
2018-08-31T21:34:08.796Z,67.30
2018-08-31T21:36:36.639Z,66.70
2018-08-31T21:39:06.347Z,67.70
2018-08-31T21:41:34.174Z,67.40
2018-08-31T21:44:02.034Z,68.20
2018-08-31T21:46:29.852Z,68.70
2018-08-31T21:48:57.631Z,68.50
2018-08-31T21:51:25.463Z,69.10
2018-08-31T21:53:54.674Z,69.00
2018-08-31T21:56:22.479Z,69.50
2018-08-31T21:58:50.327Z,69.60
2018-08-31T22:01:40.144Z,70.20
2018-08-31T22:04:09.452Z,69.90
2018-08-31T22:06:37.820Z,70.50
2018-08-31T22:09:07.424Z,70.20
2018-08-31T22:11:35.267Z,70.90
2018-08-31T22:14:03.102Z,70.70
2018-08-31T22:16:30.862Z,71.30
2018-08-31T22:18:58.651Z,71.40
2018-08-31T22:21:26.500Z,71.00
2018-08-31T22:23:54.259Z,71.70
2018-08-31T22:26:22.084Z,71.70
2018-08-31T22:28:49.815Z,72.20
2018-08-31T22:31:17.636Z,72.40
2018-08-31T22:33:45.501Z,72.00
2018-08-31T22:36:13.319Z,72.00
2018-08-31T22:38:41.162Z,72.40
2018-08-31T22:41:09.019Z,72.40
2018-08-31T22:43:42.281Z,72.50
2018-08-31T22:46:10.143Z,73.40
2018-08-31T22:48:37.980Z,73.70
2018-08-31T22:51:05.821Z,73.90
2018-08-31T22:53:33.651Z,73.90
2018-08-31T22:56:01.447Z,74.20
2018-08-31T22:58:29.383Z,74.50
2018-08-31T23:00:57.204Z,74.80
2018-08-31T23:03:25.034Z,75.40
2018-08-31T23:05:53.019Z,75.00
2018-08-31T23:08:20.840Z,74.70
2018-08-31T23:10:48.661Z,75.10
2018-08-31T23:13:16.489Z,76.00
2018-08-31T23:15:44.166Z,75.50
2018-08-31T23:18:11.992Z,76.80
2018-08-31T23:20:39.806Z,77.40
2018-08-31T23:23:13.311Z,75.50
2018-08-31T23:25:46.846Z,78.10
2018-08-31T23:28:14.562Z,78.20
2018-08-31T23:30:42.471Z,78.70
2018-08-31T23:33:10.371Z,78.10
2018-08-31T23:35:38.187Z,79.80
2018-08-31T23:38:11.715Z,79.80
2018-08-31T23:40:39.799Z,79.80
2018-08-31T23:43:08.467Z,79.60
2018-08-31T23:45:36.523Z,78.90
2018-08-31T23:48:04.432Z,80.50
2018-08-31T23:50:32.207Z,80.40
2018-08-31T23:53:00.052Z,78.70
2018-08-31T23:55:28.147Z,80.60
2018-08-31T23:57:56.000Z,79.50
